Time;durP1;ratioP1;P1;durP2;ratioP2;P2;SDS_P1;SDS_P2;PMS_P1;PMS_P2;Temp;Humidity;BMP_temperature;BMP_pressure;BME280_temperature;BME280_humidity;BME280_pressure;Samples;Min_cycle;Max_cycle;Signal;HPM_P1;HPM_P2
2022/06/21 00:00:19;;;;;;;;;;;;;;;21.69;64.38;100198.91;7399814;19;1772;-33
2022/06/21 00:02:50;;;;;;;;;;;;;;;21.58;64.60;100201.91;7397753;19;1845;-33
2022/06/21 00:05:26;;;;;;;;;;;;;;;21.63;64.56;100186.97;7400660;19;1893;-33
2022/06/21 00:07:56;;;;;;;;;;;;;;;21.67;64.67;100192.84;7400743;19;1818;-33
2022/06/21 00:10:24;;;;;;;;;;;;;;;21.75;64.33;100195.53;7401734;19;1668;-34
2022/06/21 00:12:53;;;;;;;;;;;;;;;21.79;64.23;100196.88;7400022;19;1516;-33
2022/06/21 00:15:21;;;;;;;;;;;;;;;21.80;64.20;100197.72;7402531;19;1915;-33
2022/06/21 00:17:52;;;;;;;;;;;;;;;21.77;63.95;100198.06;7407174;19;1660;-34
2022/06/21 00:20:22;;;;;;;;;;;;;;;21.71;64.07;100196.88;7407782;19;1821;-33
2022/06/21 00:22:51;;;;;;;;;;;;;;;21.81;63.89;100194.88;7405422;19;1856;-33
2022/06/21 00:25:21;;;;;;;;;;;;;;;21.83;63.83;100192.84;7408461;19;1786;-33
2022/06/21 00:27:50;;;;;;;;;;;;;;;21.81;63.92;100184.09;7407768;19;1506;-33
2022/06/21 00:30:19;;;;;;;;;;;;;;;21.82;63.64;100174.19;7406899;19;1805;-33
2022/06/21 00:32:48;;;;;;;;;;;;;;;21.81;63.93;100194.88;7406786;19;1687;-33
2022/06/21 00:35:21;;;;;;;;;;;;;;;21.80;64.07;100187.78;7407825;19;1746;-33
2022/06/21 00:37:50;;;;;;;;;;;;;;;21.81;63.92;100189.50;7407633;19;1666;-33
2022/06/21 00:40:20;;;;;;;;;;;;;;;21.80;64.29;100187.78;7407710;19;1814;-32
2022/06/21 00:42:49;;;;;;;;;;;;;;;21.79;64.42;100182.59;7403828;19;1859;-33
2022/06/21 00:45:22;;;;;;;;;;;;;;;21.60;64.44;100181.91;7406993;19;1877;-33
2022/06/21 00:47:54;;;;;;;;;;;;;;;21.57;64.58;100176.03;7406607;19;2053;-33
2022/06/21 00:50:29;;;;;;;;;;;;;;;21.41;64.83;100171.44;7405311;19;1746;-33
2022/06/21 00:53:00;;;;;;;;;;;;;;;21.58;64.38;100165.06;7406210;19;1697;-33
2022/06/21 00:55:35;;;;;;;;;;;;;;;21.52;64.35;100164.91;7407025;19;1896;-33
2022/06/21 00:58:04;;;;;;;;;;;;;;;21.73;64.32;100176.03;7405992;19;2092;-33
2022/06/21 01:00:34;;;;;;;;;;;;;;;21.77;64.27;100160.41;7407063;19;1628;-33
2022/06/21 01:03:05;;;;;;;;;;;;;;;21.71;64.55;100161.06;7403602;19;1864;-33
2022/06/21 01:05:38;;;;;;;;;;;;;;;21.62;64.27;100157.53;7406278;19;1631;-33
2022/06/21 01:08:06;;;;;;;;;;;;;;;21.59;64.53;100155.19;7406650;19;1615;-33
2022/06/21 01:10:35;;;;;;;;;;;;;;;21.65;64.48;100157.19;7406833;19;1798;-33
2022/06/21 01:13:05;;;;;;;;;;;;;;;21.72;64.14;100158.19;7406042;19;1828;-33
2022/06/21 01:15:36;;;;;;;;;;;;;;;21.73;64.12;100148.28;7405502;19;1718;-33
2022/06/21 01:18:06;;;;;;;;;;;;;;;21.76;63.82;100137.16;7406686;19;1900;-33
2022/06/21 01:20:39;;;;;;;;;;;;;;;21.75;63.80;100151.66;7406005;19;1881;-33
2022/06/21 01:23:12;;;;;;;;;;;;;;;21.69;64.04;100137.03;7404997;19;1895;-33
2022/06/21 01:25:44;;;;;;;;;;;;;;;21.68;64.18;100151.47;7404190;19;1833;-33
2022/06/21 01:28:15;;;;;;;;;;;;;;;21.70;63.81;100144.06;7402968;19;1910;-33
2022/06/21 01:30:45;;;;;;;;;;;;;;;21.67;64.31;100139.03;7405330;19;1676;-33
2022/06/21 01:33:15;;;;;;;;;;;;;;;21.64;64.08;100150.97;7404717;19;1730;-33
2022/06/21 01:35:46;;;;;;;;;;;;;;;21.68;64.12;100142.56;7405628;19;1765;-33
2022/06/21 01:38:17;;;;;;;;;;;;;;;21.66;63.99;100140.03;7404965;19;1686;-33
2022/06/21 01:40:47;;;;;;;;;;;;;;;21.69;64.00;100145.09;7405410;19;1805;-33
2022/06/21 01:43:19;;;;;;;;;;;;;;;21.69;63.74;100145.09;7400335;19;1845;-34
2022/06/21 01:45:50;;;;;;;;;;;;;;;21.57;64.04;100149.97;7403478;19;1583;-33
2022/06/21 01:48:21;;;;;;;;;;;;;;;21.59;64.10;100141.72;7404672;19;1827;-33
2022/06/21 01:50:51;;;;;;;;;;;;;;;21.65;63.90;100135.66;7404243;19;1469;-33
2022/06/21 01:53:20;;;;;;;;;;;;;;;21.61;64.01;100139.72;7404038;19;1918;-33
2022/06/21 01:55:50;;;;;;;;;;;;;;;21.56;64.09;100139.38;7406062;19;1420;-33
2022/06/21 01:58:22;;;;;;;;;;;;;;;21.61;63.85;100137.03;7404097;19;1729;-33
2022/06/21 02:00:53;;;;;;;;;;;;;;;21.63;63.92;100143.06;7397194;19;3326;-56
2022/06/21 02:03:23;;;;;;;;;;;;;;;21.63;63.84;100137.69;7402922;19;1854;-57
2022/06/21 02:05:56;;;;;;;;;;;;;;;21.59;63.97;100141.72;7406174;19;1364;-56
2022/06/21 02:08:27;;;;;;;;;;;;;;;21.53;63.82;100147.78;7406494;19;1341;-56
2022/06/21 02:10:58;;;;;;;;;;;;;;;21.53;64.28;100150.47;7408614;19;1268;-57
2022/06/21 02:13:32;;;;;;;;;;;;;;;21.56;63.71;100150.13;7407137;19;1361;-57
2022/06/21 02:16:03;;;;;;;;;;;;;;;21.62;63.70;100155.66;7406068;19;1675;-57
2022/06/21 02:18:33;;;;;;;;;;;;;;;21.51;63.81;100155.19;7406382;19;1627;-57
2022/06/21 02:21:04;;;;;;;;;;;;;;;21.54;63.72;100144.06;7407476;19;1431;-57
2022/06/21 02:23:32;;;;;;;;;;;;;;;21.54;63.99;100154.84;7404920;19;1842;-57
2022/06/21 02:26:01;;;;;;;;;;;;;;;21.59;63.77;100157.88;7407506;19;1453;-57
2022/06/21 02:28:32;;;;;;;;;;;;;;;21.59;63.67;100147.09;7406306;19;1647;-57
2022/06/21 02:31:01;;;;;;;;;;;;;;;21.60;63.04;100148.78;7406406;19;1563;-57
2022/06/21 02:33:32;;;;;;;;;;;;;;;21.59;63.14;100147.09;7406547;19;1494;-57
2022/06/21 02:36:02;;;;;;;;;;;;;;;21.50;63.24;100142.72;7400980;19;1559;-57
2022/06/21 02:38:33;;;;;;;;;;;;;;;21.49;63.40;100132.97;7404509;19;1564;-57
2022/06/21 02:41:04;;;;;;;;;;;;;;;21.54;63.21;100130.63;7406824;19;1034;-57
2022/06/21 02:43:38;;;;;;;;;;;;;;;21.56;63.21;100140.19;7403446;19;1861;-59
2022/06/21 02:46:10;;;;;;;;;;;;;;;21.53;63.20;100145.09;7405001;19;1290;-57
2022/06/21 02:48:41;;;;;;;;;;;;;;;21.44;63.22;100145.06;7405080;19;1361;-59
2022/06/21 02:51:11;;;;;;;;;;;;;;;21.32;63.57;100140.97;7406122;19;1752;-59
2022/06/21 02:53:42;;;;;;;;;;;;;;;21.44;63.48;100133.47;7404863;19;1520;-57
2022/06/21 02:56:12;;;;;;;;;;;;;;;21.32;63.27;100135.59;7407029;19;1019;-59
2022/06/21 02:58:45;;;;;;;;;;;;;;;21.25;63.75;100126.53;7404932;19;1725;-57
2022/06/21 03:01:17;;;;;;;;;;;;;;;21.35;63.39;100132.59;7403907;19;1855;-57
2022/06/21 03:03:45;;;;;;;;;;;;;;;21.47;63.20;100124.22;7403661;19;1858;-60
2022/06/21 03:06:17;;;;;;;;;;;;;;;21.55;63.00;100118.88;7405393;19;1428;-59
2022/06/21 03:08:50;;;;;;;;;;;;;;;21.54;63.25;100128.75;7403894;19;1495;-57
2022/06/21 03:11:19;;;;;;;;;;;;;;;21.39;63.52;100108.91;7404489;19;1343;-57
2022/06/21 03:13:50;;;;;;;;;;;;;;;21.48;63.27;100101.69;7405869;19;1527;-59
2022/06/21 03:16:20;;;;;;;;;;;;;;;21.53;63.47;100112.81;7404989;19;1627;-59
2022/06/21 03:18:51;;;;;;;;;;;;;;;21.55;63.24;100108.09;7402927;19;1341;-59
2022/06/21 03:21:22;;;;;;;;;;;;;;;21.54;63.33;100118.00;7403988;19;1419;-59
2022/06/21 03:23:51;;;;;;;;;;;;;;;21.57;63.48;100111.47;7403378;19;1855;-59
2022/06/21 03:26:19;;;;;;;;;;;;;;;21.52;63.26;100113.81;7405458;19;1614;-58
2022/06/21 03:28:54;;;;;;;;;;;;;;;21.53;63.30;100113.66;7402638;19;1317;-57
2022/06/21 03:31:24;;;;;;;;;;;;;;;21.59;63.21;100110.28;7403518;19;1569;-59
2022/06/21 03:33:53;;;;;;;;;;;;;;;21.55;63.53;100091.97;7404060;19;1340;-59
2022/06/21 03:36:23;;;;;;;;;;;;;;;21.53;63.57;100100.19;7405232;19;1501;-57
2022/06/21 03:38:54;;;;;;;;;;;;;;;21.56;63.49;100099.00;7404101;19;1487;-59
2022/06/21 03:44:08;;;;;;;;;;;;;;;21.63;63.35;100094.66;7404409;19;1854;-57
2022/06/21 03:46:41;;;;;;;;;;;;;;;21.65;63.30;100096.16;7405481;19;1493;-59
2022/06/21 03:49:13;;;;;;;;;;;;;;;21.63;63.08;100078.50;7403132;19;1701;-59
2022/06/21 03:51:45;;;;;;;;;;;;;;;21.64;63.15;100093.63;7403943;19;1528;-57
2022/06/21 03:54:17;;;;;;;;;;;;;;;21.66;63.28;100080.84;7403773;19;1735;-57
2022/06/21 03:56:49;;;;;;;;;;;;;;;21.72;62.88;100090.91;7404195;19;1564;-57
2022/06/21 03:59:24;;;;;;;;;;;;;;;21.73;62.74;100063.00;7401142;19;1588;-59
2022/06/21 04:01:56;;;;;;;;;;;;;;;21.81;62.52;100081.00;7398730;19;1627;-58
2022/06/21 04:04:29;;;;;;;;;;;;;;;21.89;62.80;100077.47;7400030;19;1859;-57
2022/06/21 04:07:01;;;;;;;;;;;;;;;21.89;62.30;100061.31;7399739;19;1592;-58
2022/06/21 04:09:32;;;;;;;;;;;;;;;21.91;62.23;100056.59;7403945;19;1708;-59
2022/06/21 04:12:04;;;;;;;;;;;;;;;21.95;62.31;100066.00;7401707;19;1341;-58
2022/06/21 04:14:39;;;;;;;;;;;;;;;21.98;62.19;100052.19;7403179;19;1432;-57
2022/06/21 04:17:10;;;;;;;;;;;;;;;21.97;62.33;100053.22;7400413;19;1642;-59
2022/06/21 04:19:43;;;;;;;;;;;;;;;22.03;62.49;100063.28;7402293;19;1603;-58
2022/06/21 04:22:15;;;;;;;;;;;;;;;22.05;62.31;100067.47;7402260;19;1847;-58
2022/06/21 04:24:46;;;;;;;;;;;;;;;22.09;62.20;100053.69;7404150;19;1619;-57
2022/06/21 04:27:18;;;;;;;;;;;;;;;22.14;62.51;100054.81;7401165;19;1346;-59
2022/06/21 04:29:52;;;;;;;;;;;;;;;22.11;62.42;100049.78;7403417;19;1358;-59
2022/06/21 04:32:25;;;;;;;;;;;;;;;22.13;62.38;100060.41;7402036;19;1619;-57
2022/06/21 04:34:55;;;;;;;;;;;;;;;22.04;61.93;100054.19;7402367;19;1532;-58
2022/06/21 04:37:27;;;;;;;;;;;;;;;22.09;62.25;100051.81;7401437;19;1615;-57
2022/06/21 04:39:59;;;;;;;;;;;;;;;22.23;62.38;100052.94;7403106;19;1560;-57
2022/06/21 04:42:29;;;;;;;;;;;;;;;22.32;61.93;100040.31;7401509;19;1864;-59
2022/06/21 04:45:04;;;;;;;;;;;;;;;22.27;62.21;100050.78;7401190;19;1638;-59
2022/06/21 04:47:36;;;;;;;;;;;;;;;22.32;62.51;100054.66;7402421;19;1359;-57
2022/06/21 04:50:04;;;;;;;;;;;;;;;;;;7399783;19;1382;-58
2022/06/21 04:52:36;;;;;;;;;;;;;;;22.44;62.21;100058.63;7402211;19;1303;-58
2022/06/21 04:55:05;;;;;;;;;;;;;;;22.43;62.18;100053.41;7401252;19;1386;-58
2022/06/21 04:57:34;;;;;;;;;;;;;;;22.46;61.84;100052.19;7398376;19;1618;-58
2022/06/21 05:00:07;;;;;;;;;;;;;;;22.47;62.08;100051.19;7398355;19;1583;-58
2022/06/21 05:02:36;;;;;;;;;;;;;;;22.52;61.90;100052.34;7403821;19;1833;-58
2022/06/21 05:05:06;;;;;;;;;;;;;;;22.50;62.11;100023.88;7407071;19;1600;-58
2022/06/21 05:07:37;;;;;;;;;;;;;;;22.52;62.21;100041.59;7406453;19;1642;-59
2022/06/21 05:10:06;;;;;;;;;;;;;;;22.52;62.15;100036.19;7409244;19;1653;-58
2022/06/21 05:12:37;;;;;;;;;;;;;;;22.56;62.09;100037.50;7408120;19;1348;-58
2022/06/21 05:15:12;;;;;;;;;;;;;;;22.52;62.42;100028.13;7410505;19;1318;-58
2022/06/21 05:17:42;;;;;;;;;;;;;;;22.53;62.17;100031.63;7408456;19;1765;-57
2022/06/21 05:20:15;;;;;;;;;;;;;;;22.54;62.38;100039.56;7407309;19;1587;-58
2022/06/21 05:22:45;;;;;;;;;;;;;;;22.57;62.03;100027.56;7408842;19;1864;-57
2022/06/21 05:25:19;;;;;;;;;;;;;;;22.57;62.19;100028.41;7408745;19;1606;-58
2022/06/21 05:27:50;;;;;;;;;;;;;;;22.66;62.10;100037.31;7408912;19;1352;-58
2022/06/21 05:30:23;;;;;;;;;;;;;;;22.72;61.73;100041.97;7408787;19;1340;-58
2022/06/21 05:32:53;;;;;;;;;;;;;;;22.63;60.95;100043.03;7409406;19;1276;-57
2022/06/21 05:35:24;;;;;;;;;;;;;;;22.62;60.23;100042.19;7407483;19;1886;-57
2022/06/21 05:37:53;;;;;;;;;;;;;;;22.68;59.87;100027.19;7407258;19;1584;-57
2022/06/21 05:40:30;;;;;;;;;;;;;;;22.66;59.69;100031.03;7406841;19;1524;-58
2022/06/21 05:42:58;;;;;;;;;;;;;;;22.68;59.13;100023.63;7405624;19;1865;-58
2022/06/21 05:45:34;;;;;;;;;;;;;;;22.73;60.18;100032.84;7406461;19;1327;-57
2022/06/21 05:48:05;;;;;;;;;;;;;;;22.76;60.05;100031.66;7407048;19;1517;-57
2022/06/21 05:50:35;;;;;;;;;;;;;;;22.76;60.96;100042.44;7405931;19;1257;-57
2022/06/21 05:53:11;;;;;;;;;;;;;;;22.73;60.86;100035.56;7406788;19;1270;-58
2022/06/21 05:55:42;;;;;;;;;;;;;;;22.74;60.59;100025.59;7403267;19;1677;-57
2022/06/21 05:58:17;;;;;;;;;;;;;;;22.78;60.70;100035.00;7406053;19;1454;-57
2022/06/21 06:00:50;;;;;;;;;;;;;;;22.76;60.60;100034.34;7404681;19;1370;-57
2022/06/21 06:03:23;;;;;;;;;;;;;;;22.83;60.60;100044.25;7407256;19;1855;-57
2022/06/21 06:05:51;;;;;;;;;;;;;;;22.81;60.19;100019.31;7406198;19;1357;-58
2022/06/21 06:08:22;;;;;;;;;;;;;;;22.83;59.92;100033.47;7405432;19;1456;-58
2022/06/21 06:10:51;;;;;;;;;;;;;;;22.88;59.69;100024.84;7407218;19;1377;-58
2022/06/21 06:13:21;;;;;;;;;;;;;;;23.00;58.86;100018.03;7404893;19;1682;-57
2022/06/21 06:15:54;;;;;;;;;;;;;;;23.05;59.25;100046.34;7407046;19;1724;-59
2022/06/21 06:18:27;;;;;;;;;;;;;;;23.00;59.53;100023.41;7406296;19;1287;-58
2022/06/21 06:20:59;;;;;;;;;;;;;;;22.99;59.74;100028.97;7402886;19;1552;-57
2022/06/21 06:23:32;;;;;;;;;;;;;;;23.00;59.63;100020.72;7402330;19;1867;-59
2022/06/21 06:26:02;;;;;;;;;;;;;;;23.01;60.03;100024.25;7402297;19;1719;-59
2022/06/21 06:28:34;;;;;;;;;;;;;;;23.09;60.14;100018.00;7404843;19;1662;-60
2022/06/21 06:31:07;;;;;;;;;;;;;;;23.21;59.72;100025.44;7404692;19;1408;-57
2022/06/21 06:33:38;;;;;;;;;;;;;;;23.22;60.02;100019.06;7405177;19;1362;-58
2022/06/21 06:36:08;;;;;;;;;;;;;;;23.25;60.16;100025.94;7404926;19;1306;-58
2022/06/21 06:38:36;;;;;;;;;;;;;;;23.23;60.68;100022.59;7403137;19;1288;-58
2022/06/21 06:41:08;;;;;;;;;;;;;;;23.21;60.43;100027.31;7407357;19;1705;-58
2022/06/21 06:43:40;;;;;;;;;;;;;;;23.20;60.71;100025.66;7404490;19;1842;-57
2022/06/21 06:46:15;;;;;;;;;;;;;;;23.15;60.75;100042.38;7406350;19;1470;-59
2022/06/21 06:48:45;;;;;;;;;;;;;;;23.18;60.94;100011.53;7406840;19;1455;-59
2022/06/21 06:51:34;;;;;;;;;;;;;;;23.11;61.34;100024.88;7403180;19;1412;-59
2022/06/21 06:54:03;;;;;;;;;;;;;;;23.23;61.40;100022.59;7405029;19;1458;-72
2022/06/21 06:56:35;;;;;;;;;;;;;;;23.31;61.13;100009.03;7402600;19;1521;-57
2022/06/21 06:59:06;;;;;;;;;;;;;;;23.31;61.57;100019.81;7406322;19;1378;-56
2022/06/21 07:01:47;;;;;;;;;;;;;;;23.46;61.87;100036.06;7405176;19;1382;-66
2022/06/21 07:04:17;;;;;;;;;;;;;;;23.44;62.25;100030.00;7403245;19;1875;-63
2022/06/21 07:06:47;;;;;;;;;;;;;;;23.43;62.91;100037.22;7403936;19;1532;-60
2022/06/21 07:09:18;;;;;;;;;;;;;;;23.62;62.71;100026.97;7404574;19;1537;-58
2022/06/21 07:11:50;;;;;;;;;;;;;;;23.47;63.22;100016.13;7404675;19;1307;-59
2022/06/21 07:14:22;;;;;;;;;;;;;;;23.58;63.31;100039.16;7405172;19;1391;-72
2022/06/21 07:16:56;;;;;;;;;;;;;;;23.60;63.17;100035.25;7404290;19;1268;-63
2022/06/21 07:19:24;;;;;;;;;;;;;;;23.63;63.21;100039.41;7402903;19;1475;-63
2022/06/21 07:21:53;;;;;;;;;;;;;;;23.70;63.71;100026.88;7405137;19;1463;-67
2022/06/21 07:24:22;;;;;;;;;;;;;;;23.65;63.98;100031.97;7402587;19;1854;-58
2022/06/21 07:26:53;;;;;;;;;;;;;;;23.59;64.47;100030.00;7402641;19;1528;-62
2022/06/21 07:29:26;;;;;;;;;;;;;;;23.50;63.95;100031.13;7403993;19;1321;-59
2022/06/21 07:31:59;;;;;;;;;;;;;;;23.37;64.25;100029.88;7404608;19;1532;-61
2022/06/21 07:34:32;;;;;;;;;;;;;;;23.39;63.91;100033.22;7403131;19;1469;-63
2022/06/21 07:37:02;;;;;;;;;;;;;;;23.36;64.38;100030.91;7404708;19;1497;-59
2022/06/21 07:39:34;;;;;;;;;;;;;;;23.35;64.26;100034.63;7405989;19;1113;-59
2022/06/21 07:42:07;;;;;;;;;;;;;;;23.36;64.05;100016.59;7404084;19;1678;-63
2022/06/21 07:44:37;;;;;;;;;;;;;;;23.38;64.63;100015.38;7401893;19;1837;-63
2022/06/21 07:47:12;;;;;;;;;;;;;;;23.61;64.18;100022.56;7403817;19;1347;-60
2022/06/21 07:49:41;;;;;;;;;;;;;;;23.73;64.59;100009.47;7404086;19;1560;-63
2022/06/21 07:52:14;;;;;;;;;;;;;;;23.64;64.50;100024.91;7403203;19;1363;-63
2022/06/21 07:54:45;;;;;;;;;;;;;;;23.55;65.44;100026.00;7405951;19;1085;-60
2022/06/21 07:57:18;;;;;;;;;;;;;;;23.48;65.42;100014.28;7403009;19;1639;-60
2022/06/21 07:59:49;;;;;;;;;;;;;;;23.41;65.79;100017.69;7404324;19;1552;-60
2022/06/21 08:07:49;;;;;;;;;;;;;;;23.45;65.39;100014.63;7403610;19;1255;-64
2022/06/21 08:10:20;;;;;;;;;;;;;;;23.38;65.96;100009.16;7402666;19;1391;-60
2022/06/21 08:12:49;;;;;;;;;;;;;;;23.42;65.93;100024.78;7402801;19;1671;-61
2022/06/21 08:15:18;;;;;;;;;;;;;;;23.45;65.26;100025.44;7401598;19;1292;-64
2022/06/21 08:17:52;;;;;;;;;;;;;;;23.55;65.67;100017.91;7402448;19;1343;-62
2022/06/21 08:20:24;;;;;;;;;;;;;;;23.72;65.58;100014.03;7402020;19;1356;-57
2022/06/21 08:22:57;;;;;;;;;;;;;;;23.72;65.19;100016.72;7403251;19;1156;-64
2022/06/21 08:25:29;;;;;;;;;;;;;;;23.68;65.62;100012.72;7399702;19;1851;-60
2022/06/21 08:28:00;;;;;;;;;;;;;;;23.72;66.06;100015.91;7399435;19;1642;-61
2022/06/21 08:30:31;;;;;;;;;;;;;;;23.63;65.53;100009.72;7402664;19;1293;-59
2022/06/21 08:33:06;;;;;;;;;;;;;;;23.56;65.83;100016.91;7399848;19;1304;-58
2022/06/21 08:35:36;;;;;;;;;;;;;;;23.58;65.69;100012.16;7403007;19;1400;-59
2022/06/21 08:38:09;;;;;;;;;;;;;;;23.48;65.66;100009.72;7406790;19;1734;-59
2022/06/21 08:40:51;;;;;;;;;;;;;;;23.43;65.54;100010.25;7408908;19;1580;-60
2022/06/21 08:43:28;;;;;;;;;;;;;;;23.41;65.89;100004.19;7408879;19;1719;-59
2022/06/21 08:46:08;;;;;;;;;;;;;;;23.40;65.75;100012.50;7407177;19;1851;-59
2022/06/21 08:48:56;;;;;;;;;;;;;;;23.39;65.46;100000.84;7409761;19;1528;-60
2022/06/21 08:51:49;;;;;;;;;;;;;;;23.47;66.10;99997.25;7409595;19;1769;-65
2022/06/21 08:54:25;;;;;;;;;;;;;;;23.49;66.18;100005.16;7399710;19;1254;-66
2022/06/21 08:56:58;;;;;;;;;;;;;;;23.52;66.76;100011.03;7406436;19;1697;-64
2022/06/21 08:59:31;;;;;;;;;;;;;;;23.46;67.88;99997.41;7407423;19;1720;-68
2022/06/21 09:02:03;;;;;;;;;;;;;;;23.50;67.51;100006.84;7403715;19;1824;-65
2022/06/21 09:04:41;;;;;;;;;;;;;;;23.58;67.67;100004.91;7407855;19;1853;-61
2022/06/21 09:07:22;;;;;;;;;;;;;;;23.51;67.26;100008.50;7406568;19;1422;-59
2022/06/21 09:09:54;;;;;;;;;;;;;;;23.54;67.54;99997.38;7406115;19;1482;-59
2022/06/21 09:12:30;;;;;;;;;;;;;;;23.52;67.76;100008.34;7404642;19;1319;-59
2022/06/21 09:15:11;;;;;;;;;;;;;;;23.53;67.45;99984.88;7406418;19;1757;-60
2022/06/21 09:17:45;;;;;;;;;;;;;;;23.49;67.28;99983.56;7407887;19;1837;-62
2022/06/21 09:20:23;;;;;;;;;;;;;;;23.30;67.65;99987.63;7408458;19;1512;-59
2022/06/21 09:23:01;;;;;;;;;;;;;;;23.27;67.78;99991.53;7408063;19;1650;-58
2022/06/21 09:25:31;;;;;;;;;;;;;;;23.25;68.54;99988.19;7406205;19;1869;-62
2022/06/21 09:28:03;;;;;;;;;;;;;;;23.28;68.29;99977.03;7405459;19;1370;-62
2022/06/21 09:30:36;;;;;;;;;;;;;;;23.39;68.04;99981.13;7408263;19;1555;-62
2022/06/21 09:33:08;;;;;;;;;;;;;;;23.46;67.91;99978.53;7407539;19;1356;-62
2022/06/21 09:35:45;;;;;;;;;;;;;;;23.45;67.32;99974.16;7409117;19;1631;-62
2022/06/21 09:38:19;;;;;;;;;;;;;;;23.43;67.81;99975.16;7408814;19;1627;-62
2022/06/21 09:40:53;;;;;;;;;;;;;;;23.41;67.16;99969.13;7408579;19;1497;-63
2022/06/21 09:43:25;;;;;;;;;;;;;;;23.37;67.21;99957.03;7407320;19;1756;-60
2022/06/21 09:45:58;;;;;;;;;;;;;;;23.36;67.40;99971.56;7405641;19;1905;-60
2022/06/21 09:48:29;;;;;;;;;;;;;;;23.27;67.31;99958.31;7405557;19;1357;-60
2022/06/21 09:51:04;;;;;;;;;;;;;;;23.25;67.24;99955.81;7406578;19;1259;-60
2022/06/21 09:53:36;;;;;;;;;;;;;;;23.24;67.32;99962.22;7407091;19;1323;-60
2022/06/21 09:56:08;;;;;;;;;;;;;;;23.23;67.57;99953.28;7406987;19;1389;-65
2022/06/21 09:58:42;;;;;;;;;;;;;;;23.22;67.46;99961.59;7408653;19;1592;-60
2022/06/21 10:01:14;;;;;;;;;;;;;;;23.23;67.10;99947.88;7405677;19;1672;-63
2022/06/21 10:03:46;;;;;;;;;;;;;;;23.21;67.34;99949.09;7407131;19;1579;-60
2022/06/21 10:06:25;;;;;;;;;;;;;;;23.20;67.57;99947.44;7404447;19;1854;-64
2022/06/21 10:09:02;;;;;;;;;;;;;;;23.23;67.86;99938.97;7406046;19;1585;-66
2022/06/21 10:11:37;;;;;;;;;;;;;;;23.24;67.78;99927.16;7407786;19;1732;-60
2022/06/21 10:14:22;;;;;;;;;;;;;;;23.26;67.38;99933.22;7407935;19;1446;-61
2022/06/21 10:17:02;;;;;;;;;;;;;;;23.23;68.34;99914.69;7406796;19;1642;-62
2022/06/21 10:19:37;;;;;;;;;;;;;;;23.21;67.89;99914.03;7407708;19;1292;-64
2022/06/21 10:22:18;;;;;;;;;;;;;;;23.20;68.02;99925.88;7408186;19;1555;-65
2022/06/21 10:25:01;;;;;;;;;;;;;;;23.16;68.39;99925.38;7406321;19;1855;-60
2022/06/21 10:27:42;;;;;;;;;;;;;;;23.18;68.06;99914.41;7404583;19;1556;-64
2022/06/21 10:30:20;;;;;;;;;;;;;;;23.14;68.13;99918.47;7403947;19;1675;-64
2022/06/21 10:32:55;;;;;;;;;;;;;;;23.13;67.65;99914.94;7407338;19;1355;-64
2022/06/21 10:35:33;;;;;;;;;;;;;;;23.16;67.71;99898.41;7404400;19;1271;-66
2022/06/21 10:38:16;;;;;;;;;;;;;;;23.18;67.06;99917.13;7406027;19;1548;-64
2022/06/21 10:40:53;;;;;;;;;;;;;;;23.28;67.68;99903.34;7406800;19;1408;-61
2022/06/21 10:43:37;;;;;;;;;;;;;;;23.28;67.14;99904.19;7403629;19;1482;-59
2022/06/21 10:46:11;;;;;;;;;;;;;;;23.29;68.11;99886.97;7402895;19;1862;-58
2022/06/21 10:48:55;;;;;;;;;;;;;;;23.21;68.33;99909.47;7405144;19;1683;-61
2022/06/21 10:51:28;;;;;;;;;;;;;;;23.09;68.85;99897.47;7405104;19;1873;-58
2022/06/21 10:54:05;;;;;;;;;;;;;;;23.00;68.84;99894.00;7405705;19;1254;-58
2022/06/21 10:59:23;;;;;;;;;;;;;;;22.96;68.97;99887.28;7405399;19;1455;-67
2022/06/21 11:01:52;;;;;;;;;;;;;;;22.95;68.94;99882.91;7404394;19;1883;-66
2022/06/21 11:04:35;;;;;;;;;;;;;;;22.95;69.33;99876.69;7405160;19;1853;-66
2022/06/21 11:07:07;;;;;;;;;;;;;;;22.94;69.11;99880.38;7402685;19;1563;-62
2022/06/21 11:09:40;;;;;;;;;;;;;;;23.00;68.96;99887.75;7405588;19;1866;-67
2022/06/21 11:14:57;;;;;;;;;;;;;;;22.97;69.12;99864.69;7403751;19;1750;-59
2022/06/21 11:17:29;;;;;;;;;;;;;;;22.95;68.74;99887.47;7405140;19;1874;-60
2022/06/21 11:20:00;;;;;;;;;;;;;;;22.96;69.08;99881.03;7404360;19;1572;-59
2022/06/21 11:22:34;;;;;;;;;;;;;;;22.90;69.10;99877.25;7403901;19;1622;-59
2022/06/21 11:25:17;;;;;;;;;;;;;;;22.88;68.95;99868.50;7405395;19;1855;-58
2022/06/21 11:27:49;;;;;;;;;;;;;;;22.91;68.55;99878.06;7404291;19;1466;-59
2022/06/21 11:30:21;;;;;;;;;;;;;;;22.95;68.86;99876.69;7397876;19;1677;-60
2022/06/21 11:32:53;;;;;;;;;;;;;;;22.94;68.69;99875.84;7398101;19;1444;-59
2022/06/21 11:35:27;;;;;;;;;;;;;;;22.95;68.87;99866.72;7400020;19;1615;-59
2022/06/21 11:38:02;;;;;;;;;;;;;;;22.97;68.69;99871.94;7400035;19;1940;-60
2022/06/21 11:40:43;;;;;;;;;;;;;;;22.97;68.63;99864.69;7400843;19;1532;-61
2022/06/21 11:43:17;;;;;;;;;;;;;;;22.99;68.29;99864.50;7400280;19;1691;-58
2022/06/21 11:45:49;;;;;;;;;;;;;;;22.99;68.32;99849.16;7398020;19;1871;-59
2022/06/21 11:48:35;;;;;;;;;;;;;;;22.97;68.58;99835.03;7399238;19;1660;-58
2022/06/21 11:51:09;;;;;;;;;;;;;;;23.03;68.42;99855.88;7398465;19;1415;-60
2022/06/21 11:54:01;;;;;;;;;;;;;;;23.00;68.28;99856.25;7398545;19;1557;-58
2022/06/21 11:56:40;;;;;;;;;;;;;;;23.00;68.58;99847.31;7398591;19;2074;-58
2022/06/21 11:59:10;;;;;;;;;;;;;;;23.04;68.56;99859.44;7401149;19;1464;-57
2022/06/21 12:01:44;;;;;;;;;;;;;;;23.00;68.29;99848.16;7399459;19;1560;-60
2022/06/21 12:04:17;;;;;;;;;;;;;;;22.99;68.32;99842.94;7399849;19;1463;-59
2022/06/21 12:06:49;;;;;;;;;;;;;;;22.98;68.24;99852.88;7396971;19;1853;-58
2022/06/21 12:09:20;;;;;;;;;;;;;;;22.96;68.41;99844.16;7398277;19;1464;-62
2022/06/21 12:11:59;;;;;;;;;;;;;;;23.00;68.26;99840.06;7403126;19;1650;-60
2022/06/21 12:14:35;;;;;;;;;;;;;;;22.97;68.59;99836.88;7407381;19;1573;-60
2022/06/21 12:17:08;;;;;;;;;;;;;;;23.00;68.36;99833.84;7407551;19;1630;-58
2022/06/21 12:19:38;;;;;;;;;;;;;;;23.00;68.29;99837.38;7405436;19;1566;-59
2022/06/21 12:22:09;;;;;;;;;;;;;;;22.99;68.47;99832.97;7406227;19;1538;-61
2022/06/21 12:24:38;;;;;;;;;;;;;;;23.05;68.52;99841.41;7404046;19;1574;-57
2022/06/21 12:27:11;;;;;;;;;;;;;;;22.97;68.35;99837.72;7403472;19;1841;-58
2022/06/21 12:29:40;;;;;;;;;;;;;;;23.07;68.36;99839.34;7406631;19;1554;-59
2022/06/21 12:32:10;;;;;;;;;;;;;;;22.99;68.29;99838.38;7406037;19;1557;-60
2022/06/21 12:34:42;;;;;;;;;;;;;;;23.04;68.22;99824.38;7401818;19;1873;-58
2022/06/21 12:37:12;;;;;;;;;;;;;;;23.03;68.24;99820.00;7406262;19;1642;-61
2022/06/21 12:39:42;;;;;;;;;;;;;;;23.04;68.09;99819.00;7407584;19;1540;-58
2022/06/21 12:42:23;;;;;;;;;;;;;;;23.07;67.88;99809.69;7405937;19;1610;-60
2022/06/21 12:44:59;;;;;;;;;;;;;;;23.04;68.22;99808.22;7406762;19;1863;-60
2022/06/21 12:47:33;;;;;;;;;;;;;;;23.09;68.22;99804.94;7405786;19;1254;-60
2022/06/21 12:50:16;;;;;;;;;;;;;;;23.06;68.30;99799.91;7403378;19;1248;-59
2022/06/21 12:52:47;;;;;;;;;;;;;;;23.10;68.11;99801.22;7404045;19;1442;-61
2022/06/21 12:55:20;;;;;;;;;;;;;;;23.07;67.87;99796.19;7403452;19;1195;-59
2022/06/21 12:58:01;;;;;;;;;;;;;;;23.06;68.23;99794.50;7405086;19;1562;-60
2022/06/21 13:00:37;;;;;;;;;;;;;;;23.06;68.20;99794.50;7403601;19;1243;-58
2022/06/21 13:03:20;;;;;;;;;;;;;;;23.01;67.75;99789.66;7405542;19;1432;-58
2022/06/21 13:05:56;;;;;;;;;;;;;;;23.17;67.58;99794.06;7409260;19;1879;-59
2022/06/21 13:08:46;;;;;;;;;;;;;;;23.18;67.44;99780.41;7409994;19;1556;-56
2022/06/21 13:11:30;;;;;;;;;;;;;;;23.29;67.48;99805.22;7409135;19;1574;-57
2022/06/21 13:14:13;;;;;;;;;;;;;;;23.27;67.39;99791.91;7410819;19;1460;-58
2022/06/21 13:16:47;;;;;;;;;;;;;;;23.22;67.36;99779.00;7409732;19;1463;-58
2022/06/21 13:19:31;;;;;;;;;;;;;;;23.28;67.56;99782.81;7407210;19;1733;-58
2022/06/21 13:22:09;;;;;;;;;;;;;;;23.22;68.51;99772.78;7409382;19;1514;-58
2022/06/21 13:24:55;;;;;;;;;;;;;;;23.23;68.15;99763.63;7408968;19;1510;-60
2022/06/21 13:27:28;;;;;;;;;;;;;;;23.29;67.93;99749.41;7405682;19;1850;-58
2022/06/21 13:30:14;;;;;;;;;;;;;;;23.27;68.19;99759.53;7408171;19;1540;-60
2022/06/21 13:32:49;;;;;;;;;;;;;;;23.24;69.14;99751.84;7408068;19;1761;-58